Time;durP1;ratioP1;P1;durP2;ratioP2;P2;SDS_P1;SDS_P2;PMS_P1;PMS_P2;Temp;Humidity;BMP_temperature;BMP_pressure;BME280_temperature;BME280_humidity;BME280_pressure;Samples;Min_cycle;Max_cycle;Signal;HPM_P1;HPM_P2
2021/12/08 00:02:20;;;;;;;20.30;14.23;;;-0.70;99.90;;;;;;5037347;28;20179;-89
2021/12/08 00:04:46;;;;;;;22.90;15.50;;;-0.70;99.90;;;;;;5020649;28;20196;-90
2021/12/08 00:07:12;;;;;;;21.80;15.40;;;-0.80;99.90;;;;;;5039401;28;20295;-90
2021/12/08 00:10:01;;;;;;;25.53;15.43;;;-0.80;99.90;;;;;;5022076;28;20218;-89
2021/12/08 00:15:11;;;;;;;25.03;13.67;;;-0.80;99.90;;;;;;5035571;28;20293;-90
2021/12/08 00:17:37;;;;;;;23.20;15.23;;;-0.90;99.90;;;;;;5017132;28;20212;-89
2021/12/08 00:20:05;;;;;;;24.10;14.17;;;-0.80;99.90;;;;;;5037283;28;20590;-89
2021/12/08 00:22:30;;;;;;;19.70;13.47;;;-0.80;99.90;;;;;;5037207;28;20169;-89
2021/12/08 00:24:56;;;;;;;19.07;13.60;;;-0.80;99.90;;;;;;5037312;28;20583;-90
2021/12/08 00:27:22;;;;;;;20.73;14.80;;;-0.80;99.90;;;;;;5019219;28;20208;-88
2021/12/08 00:29:48;;;;;;;19.90;14.03;;;-0.90;99.90;;;;;;5036201;28;20205;-88
2021/12/08 00:32:14;;;;;;;20.10;14.90;;;-0.90;99.90;;;;;;5036943;28;20179;-87
2021/12/08 00:34:40;;;;;;;21.57;14.43;;;-0.90;99.90;;;;;;5019435;28;20185;-86
2021/12/08 00:37:06;;;;;;;21.13;14.03;;;-1.00;99.90;;;;;;5050011;28;20200;-87
2021/12/08 00:39:35;;;;;;;18.60;13.37;;;-1.20;99.90;;;;;;5042203;28;20172;-90
2021/12/08 00:42:02;;;;;;;23.07;13.87;;;-1.20;99.90;;;;;;5034343;28;20195;-87
2021/12/08 00:44:28;;;;;;;20.57;14.77;;;-1.10;99.90;;;;;;5027004;28;20203;-88
2021/12/08 00:46:53;;;;;;;22.73;14.63;;;-1.10;99.90;;;;;;5030101;28;20200;-86
2021/12/08 00:49:19;;;;;;;23.80;14.60;;;-1.10;99.90;;;;;;5051179;28;20635;-89
2021/12/08 00:51:45;;;;;;;21.10;14.50;;;-1.10;99.90;;;;;;5038493;28;20164;-88
2021/12/08 00:54:11;;;;;;;23.03;14.27;;;-1.10;99.90;;;;;;5019877;28;20173;-88
2021/12/08 00:56:39;;;;;;;21.10;14.13;;;-0.90;99.90;;;;;;5037320;28;20240;-89
2021/12/08 00:59:05;;;;;;;20.13;14.57;;;-1.00;99.90;;;;;;5026466;28;20248;-86
2021/12/08 01:01:31;;;;;;;19.87;14.07;;;-1.00;99.90;;;;;;5037672;28;20189;-86
2021/12/08 01:03:58;;;;;;;20.67;14.97;;;-1.10;99.90;;;;;;5041814;28;20648;-86
2021/12/08 01:06:23;;;;;;;23.03;13.67;;;-1.00;99.90;;;;;;5019515;28;20660;-87
2021/12/08 01:08:49;;;;;;;18.03;13.77;;;-1.10;99.90;;;;;;5036862;28;20232;-87
2021/12/08 01:11:19;;;;;;;18.67;12.77;;;-1.20;99.90;;;;;;5018893;28;20184;-87
2021/12/08 01:13:46;;;;;;;17.60;12.20;;;-1.20;99.90;;;;;;5036066;28;20227;-87
2021/12/08 01:16:13;;;;;;;21.73;13.07;;;-1.20;99.90;;;;;;5037413;28;20195;-86
2021/12/08 01:18:39;;;;;;;19.17;11.83;;;-1.30;99.90;;;;;;5025720;28;20529;-87
2021/12/08 01:21:08;;;;;;;14.53;11.30;;;-1.40;99.90;;;;;;5045729;28;20177;-88
2021/12/08 01:23:34;;;;;;;12.93;9.60;;;-1.40;99.90;;;;;;5043952;28;20172;-86
2021/12/08 01:26:01;;;;;;;16.37;9.83;;;-1.40;99.90;;;;;;5036287;28;20510;-86
2021/12/08 01:28:28;;;;;;;16.37;10.10;;;-1.60;99.90;;;;;;5017642;28;20236;-87
2021/12/08 01:30:55;;;;;;;13.40;9.33;;;-1.60;99.90;;;;;;5035238;28;20659;-86
2021/12/08 01:33:24;;;;;;;15.20;9.07;;;-1.60;99.90;;;;;;5017783;28;20196;-86
2021/12/08 01:35:50;;;;;;;10.83;8.90;;;-1.60;99.90;;;;;;5035318;28;20179;-87
2021/12/08 01:38:18;;;;;;;12.27;9.17;;;-1.70;99.90;;;;;;5036105;28;20222;-87
2021/12/08 01:40:46;;;;;;;13.23;9.57;;;-1.70;99.90;;;;;;5036791;28;20650;-86
2021/12/08 01:43:24;;;;;;;10.40;8.87;;;-1.80;99.90;;;;;;5035397;28;20285;-87
2021/12/08 01:45:59;;;;;;;10.97;8.77;;;-1.80;99.90;;;;;;5018066;28;20622;-87
2021/12/08 01:48:30;;;;;;;12.47;8.87;;;-1.60;99.90;;;;;;5017404;28;20216;-86
2021/12/08 01:51:06;;;;;;;12.00;8.43;;;-1.70;99.90;;;;;;5017522;28;20173;-86
2021/12/08 01:53:32;;;;;;;10.60;8.07;;;-1.70;99.90;;;;;;5017502;28;20245;-87
2021/12/08 01:55:59;;;;;;;12.77;8.13;;;-1.70;99.90;;;;;;5035373;28;20644;-86
2021/12/08 01:58:28;;;;;;;12.97;8.60;;;-1.60;99.90;;;;;;5035052;28;20196;-87
2021/12/08 02:01:01;;;;;;;12.20;8.00;;;-1.50;99.90;;;;;;5034950;28;20180;-87
2021/12/08 02:03:28;;;;;;;12.13;8.53;;;-1.50;99.90;;;;;;5035621;28;20231;-86
2021/12/08 02:05:55;;;;;;;13.87;9.80;;;-1.60;99.90;;;;;;5017380;28;20176;-87
2021/12/08 02:08:24;;;;;;;10.93;8.50;;;-1.60;99.90;;;;;;5019341;28;20602;-87
2021/12/08 02:10:50;;;;;;;13.87;7.53;;;-1.60;99.90;;;;;;5035320;28;20196;-86
2021/12/08 02:13:17;;;;;;;10.57;7.53;;;-1.70;99.90;;;;;;5035180;28;20172;-89
2021/12/08 02:15:43;;;;;;;12.10;8.03;;;-1.90;99.90;;;;;;5017367;28;20675;-88
2021/12/08 02:18:13;;;;;;;11.00;8.03;;;-2.00;99.90;;;;;;5034756;28;20203;-87
2021/12/08 02:20:43;;;;;;;10.03;8.37;;;-2.00;99.90;;;;;;5016817;28;20184;-87
2021/12/08 02:23:09;;;;;;;9.13;7.40;;;-2.00;99.90;;;;;;5035531;28;20172;-86
2021/12/08 02:25:38;;;;;;;10.90;7.87;;;-2.00;99.90;;;;;;5040347;28;20212;-86
2021/12/08 02:28:07;;;;;;;9.13;7.47;;;-1.90;99.90;;;;;;5041491;28;20188;-87
2021/12/08 02:30:46;;;;;;;9.20;7.63;;;-1.80;99.90;;;;;;5042259;28;20176;-87
2021/12/08 02:49:29;;;;;;;8.10;7.17;;;-1.80;99.90;;;;;;5034337;28;20176;-87
2021/12/08 02:51:55;;;;;;;7.93;6.80;;;-1.80;99.90;;;;;;5016626;28;20200;-87
2021/12/08 02:54:21;;;;;;;9.13;7.23;;;-1.80;99.90;;;;;;5016552;28;20186;-87
2021/12/08 02:56:48;;;;;;;8.20;6.87;;;-1.90;99.90;;;;;;5034366;28;20226;-87
2021/12/08 02:59:14;;;;;;;9.83;7.07;;;-1.90;99.90;;;;;;5034375;28;20180;-87
2021/12/08 03:01:41;;;;;;;8.57;6.53;;;-1.90;99.90;;;;;;5037113;28;20184;-87
2021/12/08 03:04:08;;;;;;;10.97;7.33;;;-1.80;99.90;;;;;;5026018;28;20176;-87
2021/12/08 03:06:35;;;;;;;9.10;7.10;;;-1.80;99.90;;;;;;5044775;28;20173;-87
2021/12/08 03:09:03;;;;;;;8.37;6.77;;;-1.70;99.90;;;;;;5044575;28;20188;-87
2021/12/08 03:11:29;;;;;;;10.07;7.20;;;-1.80;99.90;;;;;;5036349;28;20172;-86
2021/12/08 03:14:16;;;;;;;8.47;6.73;;;-1.80;99.90;;;;;;5034425;28;20319;-86
2021/12/08 03:16:50;;;;;;;10.13;7.07;;;-2.00;99.90;;;;;;5016288;28;20558;-88
2021/12/08 03:19:18;;;;;;;7.87;6.53;;;-2.00;99.90;;;;;;5027263;28;20194;-87
2021/12/08 03:21:44;;;;;;;11.23;6.63;;;-1.90;99.90;;;;;;5014196;28;20169;-87
2021/12/08 03:24:21;;;;;;;7.20;6.47;;;-1.90;99.90;;;;;;5014508;28;20243;-86
2021/12/08 03:27:07;;;;;;;8.33;7.13;;;-2.00;99.90;;;;;;5014910;28;20168;-87
2021/12/08 03:32:17;;;;;;;7.10;5.90;;;-2.10;99.90;;;;;;5014389;28;20169;-87
2021/12/08 03:34:51;;;;;;;9.93;6.37;;;-2.10;99.90;;;;;;5026956;28;20176;-86
2021/12/08 03:37:23;;;;;;;6.57;5.87;;;-2.00;99.90;;;;;;5037105;28;20214;-86
2021/12/08 03:39:50;;;;;;;9.33;6.87;;;-2.20;99.90;;;;;;5016221;28;20168;-87
2021/12/08 03:42:20;;;;;;;7.40;6.37;;;-2.20;99.90;;;;;;5016535;28;20282;-86
2021/12/08 03:44:46;;;;;;;8.23;6.40;;;-2.20;99.90;;;;;;5016201;28;20183;-87
2021/12/08 03:47:16;;;;;;;8.57;6.20;;;-2.20;99.90;;;;;;5016170;28;20641;-87
2021/12/08 03:49:45;;;;;;;7.17;6.47;;;-2.40;99.90;;;;;;5015778;28;20180;-87
2021/12/08 03:52:11;;;;;;;9.30;6.30;;;-2.30;99.90;;;;;;5034341;28;20258;-88
2021/12/08 03:54:37;;;;;;;9.13;6.57;;;-2.10;99.90;;;;;;5037887;28;20529;-87
2021/12/08 03:57:05;;;;;;;7.90;6.43;;;-2.00;99.90;;;;;;5038275;28;20172;-87
2021/12/08 03:59:32;;;;;;;9.03;6.10;;;-2.00;99.90;;;;;;5038692;28;20172;-86
2021/12/08 04:01:58;;;;;;;6.23;5.63;;;-2.00;99.90;;;;;;5043551;28;20184;-86
2021/12/08 04:04:27;;;;;;;6.73;6.03;;;-2.10;99.90;;;;;;5023964;28;20188;-86
2021/12/08 04:06:55;;;;;;;6.97;5.97;;;-2.10;99.90;;;;;;5042647;28;20169;-86
2021/12/08 04:09:32;;;;;;;6.17;5.33;;;-2.20;99.90;;;;;;5020931;28;20549;-87
2021/12/08 04:11:59;;;;;;;9.93;6.10;;;-2.20;99.90;;;;;;5022254;28;20229;-86
2021/12/08 04:14:29;;;;;;;7.40;5.53;;;-2.20;99.90;;;;;;5051206;28;20208;-87
2021/12/08 04:17:24;;;;;;;6.40;5.87;;;-2.20;99.90;;;;;;5060154;28;20279;-87
2021/12/08 04:19:52;;;;;;;6.93;5.60;;;-2.20;99.90;;;;;;5029662;28;20200;-87
2021/12/08 04:22:32;;;;;;;7.07;6.07;;;-2.20;99.90;;;;;;5026735;28;20181;-86
2021/12/08 04:25:02;;;;;;;7.50;5.30;;;-2.20;99.90;;;;;;5029895;28;20270;-87
2021/12/08 04:27:32;;;;;;;7.03;5.60;;;-2.20;99.90;;;;;;5056849;28;20207;-86
2021/12/08 04:29:59;;;;;;;6.57;5.83;;;-2.30;99.90;;;;;;5023719;28;20176;-87
2021/12/08 04:32:28;;;;;;;6.27;5.67;;;-2.30;99.90;;;;;;5019636;28;20230;-86
2021/12/08 04:34:57;;;;;;;7.37;5.90;;;-2.30;99.90;;;;;;5019112;28;20204;-87
2021/12/08 04:37:29;;;;;;;6.70;5.70;;;-2.20;99.90;;;;;;5037239;28;20168;-87
2021/12/08 04:40:18;;;;;;;6.40;5.73;;;-2.10;99.90;;;;;;5021834;28;20180;-87
2021/12/08 04:45:50;;;;;;;7.10;5.87;;;-2.20;99.90;;;;;;5037662;28;20210;-88
2021/12/08 04:48:43;;;;;;;8.43;5.93;;;-2.40;99.90;;;;;;5019236;28;20200;-87
2021/12/08 04:51:31;;;;;;;7.63;6.07;;;-2.40;99.90;;;;;;5018948;28;20231;-87
2021/12/08 05:09:52;;;;;;;6.70;5.33;;;-2.30;99.90;;;;;;4990897;28;20198;-87
2021/12/08 05:12:24;;;;;;;7.07;5.80;;;-2.30;99.90;;;;;;5037674;28;20161;-88
2021/12/08 05:14:57;;;;;;;6.70;5.63;;;-2.40;99.90;;;;;;5036828;28;20585;-87
2021/12/08 05:17:30;;;;;;;6.50;5.87;;;-2.70;99.90;;;;;;5019451;28;20184;-87
2021/12/08 05:20:00;;;;;;;6.83;5.63;;;-2.60;99.90;;;;;;5049786;28;20634;-89
2021/12/08 05:22:41;;;;;;;7.47;5.57;;;-2.50;99.90;;;;;;5063028;28;20593;-87
2021/12/08 05:25:11;;;;;;;9.57;5.80;;;-2.40;99.90;;;;;;5072097;28;20169;-87
2021/12/08 05:27:44;;;;;;;7.10;5.50;;;-2.30;99.90;;;;;;5071455;28;20199;-87
2021/12/08 05:30:18;;;;;;;8.63;6.10;;;-2.30;99.90;;;;;;5038984;28;20202;-87
2021/12/08 05:32:45;;;;;;;7.30;6.10;;;-2.30;99.90;;;;;;5056228;28;20208;-88
2021/12/08 05:35:16;;;;;;;6.43;5.20;;;-2.40;99.90;;;;;;5028097;28;20230;-87
2021/12/08 05:37:42;;;;;;;6.13;5.43;;;-2.50;99.90;;;;;;5021563;28;20165;-87
2021/12/08 05:40:27;;;;;;;7.17;5.37;;;-2.60;99.90;;;;;;5028481;28;20209;-85
2021/12/08 05:42:54;;;;;;;6.30;5.37;;;-2.50;99.90;;;;;;5004941;28;20176;-86
2021/12/08 05:45:21;;;;;;;6.90;6.20;;;-2.60;99.90;;;;;;5016616;28;20175;-87
2021/12/08 05:47:50;;;;;;;8.00;5.13;;;-2.50;99.90;;;;;;5017444;28;20604;-87
2021/12/08 05:50:26;;;;;;;10.77;6.10;;;-2.30;99.90;;;;;;5012576;28;20180;-88
2021/12/08 05:52:54;;;;;;;7.07;5.80;;;-2.40;99.90;;;;;;5035759;28;20171;-86
2021/12/08 05:55:20;;;;;;;9.27;6.53;;;-2.30;99.90;;;;;;5018286;28;20578;-86
2021/12/08 05:57:46;;;;;;;6.27;5.67;;;-2.30;99.90;;;;;;5036005;28;20183;-85
2021/12/08 06:00:37;;;;;;;7.13;6.17;;;-2.40;99.90;;;;;;5023847;28;20244;-86
2021/12/08 06:03:03;;;;;;;7.23;6.50;;;-2.40;99.90;;;;;;5038288;28;20200;-86
2021/12/08 06:05:30;;;;;;;8.07;6.77;;;-2.50;99.90;;;;;;5030565;28;20585;-87
2021/12/08 06:07:57;;;;;;;7.93;6.67;;;-2.50;99.90;;;;;;5038946;28;20207;-86
2021/12/08 06:10:29;;;;;;;7.77;6.20;;;-2.50;99.90;;;;;;5023561;28;20238;-86
2021/12/08 06:12:56;;;;;;;8.47;6.80;;;-2.40;99.90;;;;;;5047883;28;20161;-86
2021/12/08 06:15:22;;;;;;;7.30;6.40;;;-2.50;99.90;;;;;;5040384;28;20257;-87
2021/12/08 06:17:48;;;;;;;8.20;7.30;;;-2.50;99.90;;;;;;5048575;28;20184;-87
2021/12/08 06:20:16;;;;;;;10.30;6.70;;;-2.50;99.90;;;;;;5027569;28;20636;-86
2021/12/08 06:22:43;;;;;;;8.33;7.40;;;-2.50;99.90;;;;;;5035421;28;20177;-87
2021/12/08 06:25:11;;;;;;;10.20;6.97;;;-2.60;99.90;;;;;;5034914;28;20176;-86
2021/12/08 06:27:37;;;;;;;9.47;7.73;;;-2.60;99.90;;;;;;5034912;28;20231;-86
2021/12/08 06:30:07;;;;;;;13.07;8.97;;;-2.60;99.90;;;;;;5017202;28;20180;-87
2021/12/08 06:32:33;;;;;;;14.70;9.23;;;-2.50;99.90;;;;;;5017299;28;20180;-87
2021/12/08 06:35:00;;;;;;;18.77;10.53;;;-2.50;99.90;;;;;;5016803;28;20182;-87
2021/12/08 06:37:33;;;;;;;13.93;9.93;;;-2.50;99.90;;;;;;5035062;28;20174;-87
2021/12/08 06:40:09;;;;;;;14.50;10.30;;;-2.50;99.90;;;;;;5034910;28;20198;-86
2021/12/08 06:42:37;;;;;;;19.13;11.60;;;-2.60;99.90;;;;;;5017379;28;20179;-89
2021/12/08 06:45:11;;;;;;;19.93;14.30;;;-2.50;99.90;;;;;;5036691;28;20195;-87
2021/12/08 06:47:39;;;;;;;22.47;15.23;;;-2.50;99.90;;;;;;5021929;28;20237;-88
2021/12/08 06:50:14;;;;;;;22.00;16.13;;;-2.50;99.90;;;;;;5041120;28;20237;-88
2021/12/08 06:52:40;;;;;;;32.53;17.83;;;-2.60;99.90;;;;;;5046169;28;20183;-87
2021/12/08 06:55:37;;;;;;;28.13;18.10;;;-2.60;99.90;;;;;;5028464;28;20183;-88
2021/12/08 06:58:08;;;;;;;22.13;14.83;;;-2.70;99.90;;;;;;5049364;28;20172;-87
2021/12/08 07:06:12;;;;;;;17.87;12.40;;;-2.60;99.90;;;;;;5036012;28;20190;-89
2021/12/08 07:08:48;;;;;;;18.73;12.40;;;-2.70;99.90;;;;;;5019078;28;20214;-86
2021/12/08 07:11:17;;;;;;;16.07;12.20;;;-2.70;99.90;;;;;;5018907;28;20224;-88
2021/12/08 07:13:44;;;;;;;16.33;11.80;;;-2.80;99.90;;;;;;5018043;28;20595;-88
2021/12/08 07:16:18;;;;;;;15.53;11.80;;;-2.70;99.90;;;;;;5036811;28;20178;-88
2021/12/08 07:19:03;;;;;;;14.70;10.37;;;-2.60;99.90;;;;;;5035605;28;20167;-89
2021/12/08 07:21:35;;;;;;;15.40;11.17;;;-2.70;99.90;;;;;;5016669;28;20274;-87
2021/12/08 07:24:26;;;;;;;16.60;11.80;;;-2.70;99.90;;;;;;5017960;28;20171;-89
2021/12/08 07:26:56;;;;;;;13.47;11.77;;;-2.80;99.90;;;;;;5041015;28;20188;-89
2021/12/08 07:29:25;;;;;;;14.80;12.17;;;-2.80;99.90;;;;;;5035712;28;20664;-88
2021/12/08 07:31:56;;;;;;;16.60;12.87;;;-2.70;99.90;;;;;;5035052;28;20245;-88
2021/12/08 07:34:23;;;;;;;13.97;11.67;;;-2.70;99.90;;;;;;5009985;28;20663;-87
2021/12/08 07:36:53;;;;;;;15.87;11.73;;;-2.70;99.90;;;;;;4997085;28;20211;-87
2021/12/08 07:39:26;;;;;;;17.43;11.57;;;-2.60;99.90;;;;;;5018549;28;20187;-88
2021/12/08 07:41:57;;;;;;;17.20;12.10;;;-2.60;99.90;;;;;;5047623;28;20182;-87
2021/12/08 07:44:23;;;;;;;16.67;12.67;;;-2.60;99.90;;;;;;5052613;28;20284;-86
2021/12/08 07:46:58;;;;;;;16.97;12.43;;;-2.50;99.90;;;;;;5024358;28;20179;-88
2021/12/08 07:49:42;;;;;;;14.60;12.03;;;-2.50;99.90;;;;;;5009720;28;20270;-86
2021/12/08 07:52:19;;;;;;;14.13;11.63;;;-2.50;99.90;;;;;;5023387;28;20191;-86
2021/12/08 07:54:47;;;;;;;16.63;12.57;;;-2.40;99.90;;;;;;5048757;28;20239;-87
2021/12/08 07:57:28;;;;;;;15.73;12.50;;;-2.50;99.90;;;;;;5048566;28;20184;-88
2021/12/08 07:59:58;;;;;;;22.57;13.87;;;-2.50;99.90;;;;;;5036226;28;20166;-87
2021/12/08 08:02:26;;;;;;;22.33;14.37;;;-2.40;99.90;;;;;;5036554;28;20209;-85
2021/12/08 08:04:54;;;;;;;19.97;14.43;;;-2.20;99.90;;;;;;5034428;28;20186;-87
2021/12/08 08:07:21;;;;;;;17.63;13.67;;;-2.30;99.90;;;;;;5048143;28;20207;-87
2021/12/08 08:09:57;;;;;;;21.77;15.77;;;-2.20;99.90;;;;;;5043357;28;20180;-85
2021/12/08 08:12:24;;;;;;;18.57;13.63;;;-2.10;99.90;;;;;;5017697;28;20176;-85
2021/12/08 08:14:55;;;;;;;19.20;13.53;;;-2.10;99.90;;;;;;5027105;28;20228;-84
2021/12/08 08:17:31;;;;;;;20.03;13.17;;;-2.10;99.90;;;;;;5008467;28;20537;-85
2021/12/08 08:19:59;;;;;;;22.50;14.60;;;-2.00;99.90;;;;;;5045936;28;20183;-86
2021/12/08 08:22:28;;;;;;;18.53;12.90;;;-1.90;99.90;;;;;;5039987;28;20187;-85
2021/12/08 08:24:56;;;;;;;21.17;13.43;;;-1.90;99.90;;;;;;5029380;28;20201;-87
2021/12/08 08:27:24;;;;;;;17.27;13.17;;;-1.80;99.90;;;;;;5034649;28;20203;-85
2021/12/08 08:29:50;;;;;;;18.10;12.77;;;-1.80;99.90;;;;;;5052284;28;20185;-84
2021/12/08 08:32:24;;;;;;;19.53;13.33;;;-1.70;99.90;;;;;;5049112;28;20183;-84
2021/12/08 08:34:55;;;;;;;17.97;13.23;;;-1.70;99.90;;;;;;5032134;28;20282;-85
2021/12/08 08:37:21;;;;;;;16.50;12.87;;;-1.70;99.90;;;;;;5011632;28;20298;-85
2021/12/08 08:39:58;;;;;;;15.67;11.90;;;-1.60;99.90;;;;;;5030912;28;20551;-84
2021/12/08 08:42:34;;;;;;;18.23;12.47;;;-1.50;99.90;;;;;;5037344;28;20584;-85
2021/12/08 08:45:15;;;;;;;16.83;13.13;;;-1.50;99.90;;;;;;5036882;28;20211;-85
2021/12/08 08:47:58;;;;;;;16.87;12.50;;;-1.50;99.90;;;;;;5037633;28;20199;-89
2021/12/08 08:50:38;;;;;;;19.00;13.77;;;-1.40;99.90;;;;;;5041557;28;20187;-85
2021/12/08 08:53:05;;;;;;;20.27;14.07;;;-1.30;99.90;;;;;;5044357;28;20163;-85
2021/12/08 08:55:35;;;;;;;23.20;14.37;;;-1.30;99.90;;;;;;5045099;28;20533;-84
2021/12/08 08:58:03;;;;;;;28.20;15.27;;;-1.20;99.90;;;;;;5032855;28;20176;-87
2021/12/08 09:00:37;;;;;;;23.80;14.73;;;-1.20;99.90;;;;;;5026530;28;20201;-86
2021/12/08 09:03:12;;;;;;;19.67;13.50;;;-1.20;99.90;;;;;;5036843;28;20191;-86
2021/12/08 09:05:44;;;;;;;20.50;13.13;;;-1.10;99.90;;;;;;5036436;28;20184;-85
2021/12/08 09:08:14;;;;;;;17.90;13.07;;;-1.20;99.90;;;;;;5036919;28;20775;-87
2021/12/08 09:10:49;;;;;;;18.03;12.50;;;-1.10;99.90;;;;;;5036975;28;20194;-86
2021/12/08 09:13:29;;;;;;;20.30;13.27;;;-1.00;99.90;;;;;;5036494;28;20246;-85
2021/12/08 09:15:59;;;;;;;18.90;13.20;;;-0.90;99.90;;;;;;5036736;28;20758;-84
2021/12/08 09:18:58;;;;;;;16.87;12.97;;;-0.90;99.90;;;;;;5018626;28;20165;-86
2021/12/08 09:21:49;;;;;;;18.43;13.80;;;-0.90;99.90;;;;;;5036956;28;20168;-86
2021/12/08 09:24:32;;;;;;;15.23;12.03;;;-0.80;99.90;;;;;;5039770;28;20617;-86
2021/12/08 09:27:01;;;;;;;15.93;11.57;;;-0.70;99.90;;;;;;5036486;28;20247;-88
2021/12/08 09:29:43;;;;;;;15.70;10.97;;;-0.60;99.90;;;;;;5042406;28;20542;-85
2021/12/08 09:32:20;;;;;;;13.53;11.07;;;-0.50;99.90;;;;;;5024142;28;20165;-85
2021/12/08 09:34:57;;;;;;;14.37;11.63;;;-0.50;99.90;;;;;;5041152;28;20543;-86
2021/12/08 09:37:36;;;;;;;15.63;11.37;;;-0.50;99.90;;;;;;5041556;28;20173;-86
2021/12/08 09:40:09;;;;;;;13.53;10.70;;;-0.40;99.90;;;;;;5041003;28;20588;-85
2021/12/08 09:42:40;;;;;;;13.07;10.93;;;-0.20;99.90;;;;;;5023023;28;20173;-85
2021/12/08 09:45:09;;;;;;;14.47;11.20;;;-0.20;99.90;;;;;;5041896;28;20188;-86
2021/12/08 09:47:35;;;;;;;15.60;11.70;;;0.00;99.90;;;;;;5028428;28;20291;-86
2021/12/08 09:50:05;;;;;;;13.03;10.60;;;0.10;99.90;;;;;;5028437;28;20208;-86
2021/12/08 09:52:31;;;;;;;14.97;11.17;;;0.20;99.90;;;;;;5018515;28;20645;-85
2021/12/08 09:55:00;;;;;;;16.50;10.97;;;0.30;99.90;;;;;;5018624;28;20268;-85
2021/12/08 09:57:27;;;;;;;14.47;11.07;;;0.50;99.90;;;;;;5002172;28;20184;-85
2021/12/08 09:59:53;;;;;;;17.50;10.53;;;0.50;99.90;;;;;;5018575;28;20185;-85
2021/12/08 10:02:34;;;;;;;12.77;10.17;;;0.60;99.90;;;;;;5019110;28;20535;-85
2021/12/08 10:05:10;;;;;;;11.33;9.53;;;0.90;99.90;;;;;;5023752;28;20189;-86
2021/12/08 10:07:37;;;;;;;13.57;9.80;;;1.10;99.90;;;;;;5016135;28;20227;-86
2021/12/08 10:10:05;;;;;;;13.03;9.93;;;1.20;99.90;;;;;;5016898;28;20174;-86
2021/12/08 10:12:34;;;;;;;13.70;9.70;;;1.40;99.90;;;;;;4998698;28;20206;-86
2021/12/08 10:15:00;;;;;;;17.80;11.17;;;1.60;99.90;;;;;;5000110;28;20226;-86
2021/12/08 10:17:26;;;;;;;13.03;9.93;;;1.90;99.90;;;;;;5000979;28;20184;-85
2021/12/08 10:20:16;;;;;;;11.53;9.47;;;2.20;99.90;;;;;;5015714;28;20191;-86
2021/12/08 10:22:45;;;;;;;13.57;10.20;;;2.30;99.90;;;;;;5000472;28;20175;-86
2021/12/08 10:25:16;;;;;;;14.13;10.90;;;2.30;99.90;;;;;;4999124;28;20503;-87
2021/12/08 10:28:03;;;;;;;14.53;10.57;;;2.40;99.90;;;;;;5016058;28;20658;-87
2021/12/08 10:30:30;;;;;;;14.07;10.37;;;2.40;99.90;;;;;;5015944;28;20180;-87
2021/12/08 10:32:56;;;;;;;15.60;10.27;;;2.50;99.90;;;;;;5016648;28;20233;-86
2021/12/08 10:35:48;;;;;;;13.03;10.00;;;2.50;99.90;;;;;;5020198;28;20262;-85
2021/12/08 10:38:19;;;;;;;10.90;9.53;;;2.50;99.90;;;;;;5022941;28;20171;-86
2021/12/08 10:41:04;;;;;;;11.47;9.67;;;2.50;99.90;;;;;;5006455;28;20172;-87
2021/12/08 10:43:30;;;;;;;12.30;8.63;;;2.50;99.90;;;;;;5010871;28;20203;-87
2021/12/08 10:46:12;;;;;;;13.13;9.23;;;2.30;99.90;;;;;;5002861;28;20183;-86
2021/12/08 10:48:44;;;;;;;11.27;9.37;;;2.30;99.90;;;;;;5019730;28;20242;-85
2021/12/08 10:54:30;;;;;;;13.47;9.33;;;2.10;99.90;;;;;;5025138;28;20186;-85
2021/12/08 10:56:58;;;;;;;10.43;8.90;;;2.00;99.90;;;;;;5030260;28;20176;-86
2021/12/08 10:59:45;;;;;;;11.13;9.70;;;2.00;99.90;;;;;;5008683;28;20254;-84
2021/12/08 11:02:38;;;;;;;13.40;9.57;;;2.00;99.90;;;;;;5016901;28;20182;-86
2021/12/08 11:05:07;;;;;;;13.27;8.90;;;2.00;99.90;;;;;;4997076;28;20581;-87
2021/12/08 11:07:33;;;;;;;59.17;26.40;;;2.00;99.90;;;;;;4997321;28;20365;-86
2021/12/08 11:10:17;;;;;;;21.30;14.13;;;2.10;99.90;;;;;;4997830;28;20175;-85
2021/12/08 11:12:43;;;;;;;23.77;19.13;;;2.20;99.90;;;;;;5018894;28;20176;-85
2021/12/08 11:15:23;;;;;;;29.90;19.03;;;2.30;99.90;;;;;;5033854;28;20247;-86
2021/12/08 11:18:06;;;;;;;14.97;10.00;;;2.50;99.90;;;;;;5002460;28;20254;-86
2021/12/08 11:20:33;;;;;;;12.33;8.90;;;2.60;99.90;;;;;;5018516;28;20187;-85
2021/12/08 11:23:05;;;;;;;9.20;8.00;;;2.70;99.90;;;;;;5039462;28;20253;-90
2021/12/08 11:28:23;;;;;;;13.37;8.53;;;2.50;99.90;;;;;;5046974;28;20234;-86
2021/12/08 11:30:53;;;;;;;14.57;9.40;;;2.50;99.90;;;;;;5032608;28;20191;-89
2021/12/08 11:33:23;;;;;;;15.83;8.93;;;2.40;99.90;;;;;;5014652;28;20185;-85
2021/12/08 11:38:42;;;;;;;14.23;8.83;;;2.40;99.90;;;;;;5108089;23;20265;-87
2021/12/08 11:41:40;;;;;;;9.80;7.60;;;2.30;99.90;;;;;;5059983;28;20258;-86
2021/12/08 11:44:13;;;;;;;13.37;9.83;;;2.40;99.90;;;;;;5058881;28;20223;-90
2021/12/08 11:46:44;;;;;;;11.00;8.20;;;2.50;99.90;;;;;;5084888;22;20237;-86
2021/12/08 11:49:12;;;;;;;8.67;6.73;;;2.60;99.90;;;;;;5016244;28;20303;-86
2021/12/08 11:51:43;;;;;;;10.03;7.73;;;2.80;99.90;;;;;;5002556;28;20747;-87
2021/12/08 11:54:56;;;;;;;10.77;7.73;;;2.80;99.90;;;;;;5024360;28;20176;-86
2021/12/08 11:57:32;;;;;;;13.07;8.53;;;2.80;99.90;;;;;;4904710;29;20191;-87
2021/12/08 12:00:28;;;;;;;11.30;7.87;;;2.60;99.90;;;;;;4905154;29;20193;-86
2021/12/08 12:03:02;;;;;;;9.50;7.70;;;2.60;99.90;;;;;;4932491;29;20235;-86
2021/12/08 12:05:31;;;;;;;9.37;7.10;;;2.50;99.90;;;;;;4926353;29;20196;-87
2021/12/08 12:08:00;;;;;;;8.87;7.70;;;2.50;99.90;;;;;;4959207;29;20687;-90
2021/12/08 12:10:29;;;;;;;10.37;7.47;;;2.50;99.90;;;;;;4960718;29;20205;-86
2021/12/08 12:12:55;;;;;;;8.23;7.20;;;2.40;99.90;;;;;;4959202;28;20174;-87
2021/12/08 12:15:23;;;;;;;10.60;7.47;;;2.50;99.90;;;;;;4965105;29;20575;-88
2021/12/08 12:17:50;;;;;;;7.23;6.50;;;2.60;99.90;;;;;;4990567;23;20268;-88
2021/12/08 12:20:40;;;;;;;9.47;7.00;;;2.60;99.90;;;;;;4991753;28;20200;-87
2021/12/08 12:23:24;;;;;;;10.37;8.20;;;2.50;99.90;;;;;;5008118;28;20183;-86
2021/12/08 12:26:15;;;;;;;10.80;7.27;;;2.40;99.40;;;;;;4995576;28;20180;-91
2021/12/08 12:28:55;;;;;;;9.38;8.27;;;2.40;99.60;;;;;;5021873;28;20478;-87
2021/12/08 12:31:37;;;;;;;9.50;7.93;;;2.40;99.80;;;;;;5017025;28;20183;-86
2021/12/08 12:34:02;;;;;;;9.17;8.27;;;2.30;99.80;;;;;;5004111;28;20187;-86
2021/12/08 12:36:32;;;;;;;11.83;7.43;;;2.30;99.60;;;;;;5023752;28;20172;-87
2021/12/08 12:39:16;;;;;;;10.33;7.23;;;2.20;99.90;;;;;;5022108;28;20230;-87
2021/12/08 12:42:05;;;;;;;11.67;8.83;;;2.30;99.90;;;;;;5022752;28;20629;-88
2021/12/08 12:44:32;;;;;;;9.83;8.47;;;2.30;99.90;;;;;;5026672;28;20171;-88
2021/12/08 12:47:12;;;;;;;10.00;7.47;;;2.50;99.90;;;;;;5007389;28;20181;-87
2021/12/08 12:49:44;;;;;;;7.87;7.03;;;2.40;99.90;;;;;;5036973;28;20176;-87
2021/12/08 12:52:16;;;;;;;10.50;7.60;;;2.40;99.90;;;;;;5048611;28;20174;-86
2021/12/08 12:54:46;;;;;;;9.27;7.37;;;2.50;99.90;;;;;;5054140;28;20207;-85
2021/12/08 12:57:14;;;;;;;9.27;7.37;;;2.50;99.90;;;;;;5035360;28;20674;-87
2021/12/08 12:59:52;;;;;;;8.37;7.57;;;2.60;99.90;;;;;;5067768;23;20242;-88
2021/12/08 13:02:34;;;;;;;10.10;7.70;;;2.60;99.90;;;;;;4990959;28;20261;-89
2021/12/08 13:05:10;;;;;;;9.73;7.67;;;2.60;99.90;;;;;;4999154;28;20197;-88
2021/12/08 13:07:55;;;;;;;8.80;7.33;;;2.70;99.90;;;;;;4994266;28;20230;-89
2021/12/08 13:27:14;;;;;;;10.47;8.13;;;2.30;99.90;;;;;;5197112;22;20246;-88
2021/12/08 13:29:45;;;;;;;10.37;7.57;;;2.30;99.90;;;;;;5049328;28;20171;-87
2021/12/08 13:32:13;;;;;;;9.70;8.23;;;2.30;99.90;;;;;;5050492;28;20172;-87
2021/12/08 13:34:58;;;;;;;10.13;9.13;;;2.40;99.90;;;;;;5059779;28;20543;-88
2021/12/08 13:37:28;;;;;;;11.60;8.87;;;2.40;99.90;;;;;;5053418;28;20236;-87
2021/12/08 13:40:03;;;;;;;13.63;9.63;;;2.30;99.90;;;;;;5027793;28;20175;-87
2021/12/08 13:42:33;;;;;;;10.77;8.27;;;2.40;99.90;;;;;;5036460;28;20171;-87
2021/12/08 13:45:12;;;;;;;11.87;8.30;;;2.30;99.90;;;;;;5061058;28;20196;-87
2021/12/08 13:47:47;;;;;;;10.60;8.63;;;2.30;99.90;;;;;;5052311;28;20673;-87
2021/12/08 13:50:25;;;;;;;11.63;9.07;;;2.40;99.90;;;;;;5036990;28;20275;-87
2021/12/08 13:53:10;;;;;;;11.20;8.80;;;2.50;99.90;;;;;;5041172;28;20198;-87
2021/12/08 13:55:59;;;;;;;11.73;8.03;;;2.50;99.90;;;;;;5041024;28;20187;-88
2021/12/08 13:58:35;;;;;;;13.13;8.80;;;2.50;99.90;;;;;;5039869;28;20257;-88
2021/12/08 14:01:02;;;;;;;10.67;8.10;;;2.50;99.90;;;;;;5055011;23;20261;-87
2021/12/08 14:03:57;;;;;;;10.83;8.57;;;2.50;99.90;;;;;;5024309;28;20269;-88
2021/12/08 14:06:23;;;;;;;12.23;7.73;;;2.50;99.90;;;;;;5008631;28;20239;-88
2021/12/08 14:08:50;;;;;;;9.87;8.50;;;2.60;99.90;;;;;;5023731;28;20695;-87
2021/12/08 14:13:53;;;;;;;10.80;8.90;;;2.70;99.90;;;;;;5036154;28;20211;-87
2021/12/08 14:16:23;;;;;;;9.77;8.47;;;2.60;99.90;;;;;;5023281;28;20180;-87
2021/12/08 14:18:52;;;;;;;9.77;8.30;;;2.60;99.90;;;;;;5024637;28;20175;-87